sensor_id;sensor_type;location;lat;lon;timestamp;P1;durP1;ratioP1;P2;durP2;ratioP2
17214;SDS011;8723;51.502;6.918;2022-12-29T00:02:27;1.48;;;1.10;;
17214;SDS011;8723;51.502;6.918;2022-12-29T00:04:55;0.98;;;0.98;;
17214;SDS011;8723;51.502;6.918;2022-12-29T00:07:22;1.10;;;1.00;;
17214;SDS011;8723;51.502;6.918;2022-12-29T00:09:49;1.17;;;1.08;;
17214;SDS011;8723;51.502;6.918;2022-12-29T00:12:16;0.95;;;0.95;;
17214;SDS011;8723;51.502;6.918;2022-12-29T00:14:43;1.88;;;1.20;;
17214;SDS011;8723;51.502;6.918;2022-12-29T00:17:29;1.30;;;1.10;;
17214;SDS011;8723;51.502;6.918;2022-12-29T00:19:56;1.30;;;1.10;;
17214;SDS011;8723;51.502;6.918;2022-12-29T00:22:41;1.20;;;1.10;;
17214;SDS011;8723;51.502;6.918;2022-12-29T00:25:26;1.27;;;0.90;;
17214;SDS011;8723;51.502;6.918;2022-12-29T00:28:11;1.00;;;1.00;;
17214;SDS011;8723;51.502;6.918;2022-12-29T00:30:58;1.17;;;1.10;;
17214;SDS011;8723;51.502;6.918;2022-12-29T00:33:44;1.20;;;1.10;;
17214;SDS011;8723;51.502;6.918;2022-12-29T00:36:29;1.17;;;1.00;;
17214;SDS011;8723;51.502;6.918;2022-12-29T00:38:59;1.55;;;1.10;;
17214;SDS011;8723;51.502;6.918;2022-12-29T00:41:45;1.10;;;1.10;;
17214;SDS011;8723;51.502;6.918;2022-12-29T00:44:30;1.42;;;1.20;;
17214;SDS011;8723;51.502;6.918;2022-12-29T00:46:57;1.60;;;1.23;;
17214;SDS011;8723;51.502;6.918;2022-12-29T00:49:30;1.13;;;1.03;;
17214;SDS011;8723;51.502;6.918;2022-12-29T00:51:57;1.33;;;1.20;;
17214;SDS011;8723;51.502;6.918;2022-12-29T00:54:24;1.17;;;1.08;;
17214;SDS011;8723;51.502;6.918;2022-12-29T00:56:52;1.10;;;1.00;;
17214;SDS011;8723;51.502;6.918;2022-12-29T00:59:19;1.50;;;1.20;;
17214;SDS011;8723;51.502;6.918;2022-12-29T01:01:49;1.38;;;1.30;;
17214;SDS011;8723;51.502;6.918;2022-12-29T01:04:16;2.80;;;1.03;;
17214;SDS011;8723;51.502;6.918;2022-12-29T01:06:44;1.20;;;1.10;;
17214;SDS011;8723;51.502;6.918;2022-12-29T01:09:11;2.17;;;1.20;;
17214;SDS011;8723;51.502;6.918;2022-12-29T01:11:56;1.35;;;0.95;;
17214;SDS011;8723;51.502;6.918;2022-12-29T01:14:23;1.20;;;1.10;;
17214;SDS011;8723;51.502;6.918;2022-12-29T01:16:51;1.00;;;1.00;;
17214;SDS011;8723;51.502;6.918;2022-12-29T01:19:18;1.10;;;1.00;;
17214;SDS011;8723;51.502;6.918;2022-12-29T01:21:47;1.00;;;1.00;;
17214;SDS011;8723;51.502;6.918;2022-12-29T01:24:14;0.88;;;0.73;;
17214;SDS011;8723;51.502;6.918;2022-12-29T01:26:41;0.75;;;0.75;;
17214;SDS011;8723;51.502;6.918;2022-12-29T01:29:09;0.70;;;0.70;;
17214;SDS011;8723;51.502;6.918;2022-12-29T01:31:36;1.13;;;0.70;;
17214;SDS011;8723;51.502;6.918;2022-12-29T01:34:03;0.73;;;0.73;;
17214;SDS011;8723;51.502;6.918;2022-12-29T01:36:30;0.90;;;0.70;;
17214;SDS011;8723;51.502;6.918;2022-12-29T01:38:59;0.75;;;0.65;;
17214;SDS011;8723;51.502;6.918;2022-12-29T01:41:26;0.60;;;0.60;;
17214;SDS011;8723;51.502;6.918;2022-12-29T01:43:54;0.60;;;0.60;;
17214;SDS011;8723;51.502;6.918;2022-12-29T01:46:23;0.52;;;0.52;;
17214;SDS011;8723;51.502;6.918;2022-12-29T01:48:53;0.60;;;0.60;;
17214;SDS011;8723;51.502;6.918;2022-12-29T01:51:21;0.40;;;0.40;;
17214;SDS011;8723;51.502;6.918;2022-12-29T01:53:48;0.40;;;0.40;;
17214;SDS011;8723;51.502;6.918;2022-12-29T01:56:18;1.00;;;0.40;;
17214;SDS011;8723;51.502;6.918;2022-12-29T01:58:46;0.50;;;0.50;;
17214;SDS011;8723;51.502;6.918;2022-12-29T02:01:14;0.40;;;0.40;;
17214;SDS011;8723;51.502;6.918;2022-12-29T02:03:42;0.60;;;0.35;;
17214;SDS011;8723;51.502;6.918;2022-12-29T02:06:10;0.47;;;0.40;;
17214;SDS011;8723;51.502;6.918;2022-12-29T02:08:38;0.50;;;0.50;;
17214;SDS011;8723;51.502;6.918;2022-12-29T02:11:06;0.50;;;0.50;;
17214;SDS011;8723;51.502;6.918;2022-12-29T02:13:35;0.50;;;0.50;;
17214;SDS011;8723;51.502;6.918;2022-12-29T02:16:05;0.88;;;0.50;;
17214;SDS011;8723;51.502;6.918;2022-12-29T02:18:37;0.47;;;0.47;;
17214;SDS011;8723;51.502;6.918;2022-12-29T02:21:21;1.23;;;0.55;;
17214;SDS011;8723;51.502;6.918;2022-12-29T02:24:03;0.60;;;0.60;;
17214;SDS011;8723;51.502;6.918;2022-12-29T02:26:48;0.50;;;0.50;;
17214;SDS011;8723;51.502;6.918;2022-12-29T02:32:00;0.77;;;0.45;;
17214;SDS011;8723;51.502;6.918;2022-12-29T02:34:30;1.75;;;0.60;;
17214;SDS011;8723;51.502;6.918;2022-12-29T02:37:00;0.70;;;0.70;;
17214;SDS011;8723;51.502;6.918;2022-12-29T02:39:30;0.80;;;0.60;;
17214;SDS011;8723;51.502;6.918;2022-12-29T02:42:03;1.10;;;0.50;;
17214;SDS011;8723;51.502;6.918;2022-12-29T02:44:36;1.70;;;0.60;;
17214;SDS011;8723;51.502;6.918;2022-12-29T02:47:11;0.80;;;0.70;;
17214;SDS011;8723;51.502;6.918;2022-12-29T02:49:42;1.27;;;0.70;;
17214;SDS011;8723;51.502;6.918;2022-12-29T02:52:15;1.48;;;0.73;;
17214;SDS011;8723;51.502;6.918;2022-12-29T02:54:43;1.10;;;0.80;;
17214;SDS011;8723;51.502;6.918;2022-12-29T02:57:13;0.70;;;0.70;;
17214;SDS011;8723;51.502;6.918;2022-12-29T02:59:40;0.70;;;0.70;;
17214;SDS011;8723;51.502;6.918;2022-12-29T03:02:14;1.53;;;1.00;;
17214;SDS011;8723;51.502;6.918;2022-12-29T03:04:50;1.67;;;0.90;;
17214;SDS011;8723;51.502;6.918;2022-12-29T03:07:23;1.35;;;0.80;;
17214;SDS011;8723;51.502;6.918;2022-12-29T03:09:54;1.40;;;0.98;;
17214;SDS011;8723;51.502;6.918;2022-12-29T03:12:24;1.45;;;0.77;;
17214;SDS011;8723;51.502;6.918;2022-12-29T03:15:12;2.58;;;0.98;;
17214;SDS011;8723;51.502;6.918;2022-12-29T03:18:01;1.38;;;0.82;;
17214;SDS011;8723;51.502;6.918;2022-12-29T03:20:35;0.70;;;0.70;;
17214;SDS011;8723;51.502;6.918;2022-12-29T03:23:05;1.38;;;0.82;;
17214;SDS011;8723;51.502;6.918;2022-12-29T03:25:33;0.93;;;0.87;;
17214;SDS011;8723;51.502;6.918;2022-12-29T03:28:03;2.03;;;0.77;;
17214;SDS011;8723;51.502;6.918;2022-12-29T03:30:31;0.80;;;0.77;;
17214;SDS011;8723;51.502;6.918;2022-12-29T03:33:01;1.08;;;0.82;;
17214;SDS011;8723;51.502;6.918;2022-12-29T03:35:29;0.80;;;0.70;;
17214;SDS011;8723;51.502;6.918;2022-12-29T03:38:02;2.00;;;1.07;;
17214;SDS011;8723;51.502;6.918;2022-12-29T03:40:30;0.93;;;0.60;;
17214;SDS011;8723;51.502;6.918;2022-12-29T03:42:59;1.65;;;0.90;;
17214;SDS011;8723;51.502;6.918;2022-12-29T03:45:26;1.50;;;0.75;;
17214;SDS011;8723;51.502;6.918;2022-12-29T03:47:53;2.13;;;0.93;;
17214;SDS011;8723;51.502;6.918;2022-12-29T03:50:20;1.77;;;0.93;;
17214;SDS011;8723;51.502;6.918;2022-12-29T03:52:47;1.10;;;0.73;;
17214;SDS011;8723;51.502;6.918;2022-12-29T03:55:16;2.72;;;1.00;;
17214;SDS011;8723;51.502;6.918;2022-12-29T03:57:43;2.30;;;1.00;;
17214;SDS011;8723;51.502;6.918;2022-12-29T04:00:10;1.08;;;0.70;;
17214;SDS011;8723;51.502;6.918;2022-12-29T04:02:38;1.20;;;0.70;;
17214;SDS011;8723;51.502;6.918;2022-12-29T04:05:05;0.70;;;0.65;;
17214;SDS011;8723;51.502;6.918;2022-12-29T04:07:33;0.93;;;0.70;;
17214;SDS011;8723;51.502;6.918;2022-12-29T04:10:00;1.37;;;0.80;;
17214;SDS011;8723;51.502;6.918;2022-12-29T04:12:28;0.65;;;0.65;;
17214;SDS011;8723;51.502;6.918;2022-12-29T04:14:55;1.35;;;0.70;;
17214;SDS011;8723;51.502;6.918;2022-12-29T04:17:23;2.15;;;0.60;;
17214;SDS011;8723;51.502;6.918;2022-12-29T04:19:50;0.90;;;0.60;;
17214;SDS011;8723;51.502;6.918;2022-12-29T04:22:37;0.85;;;0.63;;
17214;SDS011;8723;51.502;6.918;2022-12-29T04:25:04;1.60;;;0.90;;
17214;SDS011;8723;51.502;6.918;2022-12-29T04:27:33;1.60;;;0.70;;
17214;SDS011;8723;51.502;6.918;2022-12-29T04:30:00;1.10;;;0.47;;
17214;SDS011;8723;51.502;6.918;2022-12-29T04:32:27;2.40;;;0.80;;
17214;SDS011;8723;51.502;6.918;2022-12-29T04:34:54;0.80;;;0.60;;
17214;SDS011;8723;51.502;6.918;2022-12-29T04:37:21;0.90;;;0.57;;
17214;SDS011;8723;51.502;6.918;2022-12-29T04:39:48;1.15;;;0.50;;
17214;SDS011;8723;51.502;6.918;2022-12-29T04:42:16;1.25;;;0.70;;
17214;SDS011;8723;51.502;6.918;2022-12-29T04:44:44;1.00;;;0.55;;
17214;SDS011;8723;51.502;6.918;2022-12-29T04:47:11;1.52;;;0.60;;
17214;SDS011;8723;51.502;6.918;2022-12-29T04:49:38;1.90;;;0.73;;
17214;SDS011;8723;51.502;6.918;2022-12-29T04:52:05;1.10;;;0.75;;
17214;SDS011;8723;51.502;6.918;2022-12-29T04:54:33;0.65;;;0.57;;
17214;SDS011;8723;51.502;6.918;2022-12-29T04:57:00;1.33;;;0.70;;
17214;SDS011;8723;51.502;6.918;2022-12-29T04:59:27;0.93;;;0.75;;
17214;SDS011;8723;51.502;6.918;2022-12-29T05:01:56;0.88;;;0.70;;
17214;SDS011;8723;51.502;6.918;2022-12-29T05:04:23;1.20;;;0.63;;
17214;SDS011;8723;51.502;6.918;2022-12-29T05:06:50;2.40;;;0.65;;
17214;SDS011;8723;51.502;6.918;2022-12-29T05:09:17;2.17;;;0.70;;
17214;SDS011;8723;51.502;6.918;2022-12-29T05:11:44;1.55;;;0.82;;
17214;SDS011;8723;51.502;6.918;2022-12-29T05:14:11;1.15;;;0.75;;
17214;SDS011;8723;51.502;6.918;2022-12-29T05:16:38;1.67;;;0.82;;
17214;SDS011;8723;51.502;6.918;2022-12-29T05:19:07;2.50;;;1.10;;
17214;SDS011;8723;51.502;6.918;2022-12-29T05:21:34;1.42;;;0.80;;
17214;SDS011;8723;51.502;6.918;2022-12-29T05:24:01;3.50;;;1.30;;
17214;SDS011;8723;51.502;6.918;2022-12-29T05:26:28;1.67;;;1.20;;
17214;SDS011;8723;51.502;6.918;2022-12-29T05:28:56;1.83;;;1.10;;
17214;SDS011;8723;51.502;6.918;2022-12-29T05:31:23;2.10;;;0.93;;
17214;SDS011;8723;51.502;6.918;2022-12-29T05:33:50;0.70;;;0.70;;
17214;SDS011;8723;51.502;6.918;2022-12-29T05:36:18;1.13;;;0.70;;
17214;SDS011;8723;51.502;6.918;2022-12-29T05:38:45;1.70;;;0.90;;
17214;SDS011;8723;51.502;6.918;2022-12-29T05:41:13;1.67;;;0.73;;
17214;SDS011;8723;51.502;6.918;2022-12-29T05:43:40;1.73;;;0.80;;
17214;SDS011;8723;51.502;6.918;2022-12-29T05:46:07;1.50;;;0.90;;
17214;SDS011;8723;51.502;6.918;2022-12-29T05:48:34;1.50;;;0.73;;
17214;SDS011;8723;51.502;6.918;2022-12-29T05:51:01;2.83;;;1.00;;
17214;SDS011;8723;51.502;6.918;2022-12-29T05:53:30;2.03;;;0.98;;
17214;SDS011;8723;51.502;6.918;2022-12-29T05:55:57;1.80;;;0.90;;
17214;SDS011;8723;51.502;6.918;2022-12-29T05:58:24;1.60;;;0.73;;
17214;SDS011;8723;51.502;6.918;2022-12-29T06:00:51;1.65;;;0.70;;
17214;SDS011;8723;51.502;6.918;2022-12-29T06:03:18;2.33;;;0.90;;
17214;SDS011;8723;51.502;6.918;2022-12-29T06:05:45;1.70;;;0.80;;
17214;SDS011;8723;51.502;6.918;2022-12-29T06:08:13;2.20;;;0.73;;
17214;SDS011;8723;51.502;6.918;2022-12-29T06:10:41;1.05;;;0.70;;
17214;SDS011;8723;51.502;6.918;2022-12-29T06:13:08;1.63;;;0.85;;
17214;SDS011;8723;51.502;6.918;2022-12-29T06:15:36;2.13;;;0.80;;
17214;SDS011;8723;51.502;6.918;2022-12-29T06:18:03;1.38;;;0.70;;
17214;SDS011;8723;51.502;6.918;2022-12-29T06:20:30;1.70;;;0.70;;
17214;SDS011;8723;51.502;6.918;2022-12-29T06:22:57;2.20;;;0.90;;
17214;SDS011;8723;51.502;6.918;2022-12-29T06:25:24;2.20;;;0.80;;
17214;SDS011;8723;51.502;6.918;2022-12-29T06:27:53;1.47;;;0.70;;
17214;SDS011;8723;51.502;6.918;2022-12-29T06:30:21;2.33;;;0.90;;
17214;SDS011;8723;51.502;6.918;2022-12-29T06:32:48;1.67;;;0.98;;
17214;SDS011;8723;51.502;6.918;2022-12-29T06:35:16;1.07;;;0.80;;
17214;SDS011;8723;51.502;6.918;2022-12-29T06:37:43;2.58;;;0.93;;
17214;SDS011;8723;51.502;6.918;2022-12-29T06:40:10;1.30;;;0.70;;
17214;SDS011;8723;51.502;6.918;2022-12-29T06:42:38;1.90;;;0.80;;
17214;SDS011;8723;51.502;6.918;2022-12-29T06:45:06;1.52;;;0.85;;
17214;SDS011;8723;51.502;6.918;2022-12-29T06:47:34;1.58;;;0.80;;
17214;SDS011;8723;51.502;6.918;2022-12-29T06:50:01;2.22;;;0.90;;
17214;SDS011;8723;51.502;6.918;2022-12-29T06:52:28;2.30;;;0.90;;
17214;SDS011;8723;51.502;6.918;2022-12-29T06:54:55;2.10;;;0.88;;
17214;SDS011;8723;51.502;6.918;2022-12-29T06:57:22;1.55;;;1.02;;
17214;SDS011;8723;51.502;6.918;2022-12-29T06:59:51;1.33;;;0.77;;
17214;SDS011;8723;51.502;6.918;2022-12-29T07:02:21;3.13;;;1.40;;
17214;SDS011;8723;51.502;6.918;2022-12-29T07:04:50;3.22;;;1.10;;
17214;SDS011;8723;51.502;6.918;2022-12-29T07:07:17;1.40;;;1.03;;
17214;SDS011;8723;51.502;6.918;2022-12-29T07:09:44;1.98;;;0.95;;
17214;SDS011;8723;51.502;6.918;2022-12-29T07:12:11;3.00;;;1.20;;
17214;SDS011;8723;51.502;6.918;2022-12-29T07:14:38;3.72;;;1.02;;
17214;SDS011;8723;51.502;6.918;2022-12-29T07:17:05;2.20;;;1.10;;
17214;SDS011;8723;51.502;6.918;2022-12-29T07:19:34;1.92;;;1.00;;
17214;SDS011;8723;51.502;6.918;2022-12-29T07:22:01;2.67;;;1.20;;
17214;SDS011;8723;51.502;6.918;2022-12-29T07:24:28;3.22;;;1.38;;
17214;SDS011;8723;51.502;6.918;2022-12-29T07:26:55;2.30;;;1.30;;
17214;SDS011;8723;51.502;6.918;2022-12-29T07:29:22;1.90;;;1.23;;
17214;SDS011;8723;51.502;6.918;2022-12-29T07:31:50;4.05;;;1.38;;
17214;SDS011;8723;51.502;6.918;2022-12-29T07:34:17;2.13;;;1.00;;
17214;SDS011;8723;51.502;6.918;2022-12-29T07:36:45;1.70;;;1.10;;
17214;SDS011;8723;51.502;6.918;2022-12-29T07:39:12;1.63;;;1.00;;
17214;SDS011;8723;51.502;6.918;2022-12-29T07:41:39;2.85;;;1.10;;
17214;SDS011;8723;51.502;6.918;2022-12-29T07:44:08;2.40;;;1.23;;
17214;SDS011;8723;51.502;6.918;2022-12-29T07:46:35;3.58;;;1.10;;
17214;SDS011;8723;51.502;6.918;2022-12-29T07:49:02;2.42;;;1.20;;
17214;SDS011;8723;51.502;6.918;2022-12-29T07:51:29;3.20;;;1.37;;
17214;SDS011;8723;51.502;6.918;2022-12-29T07:53:58;2.15;;;1.17;;
17214;SDS011;8723;51.502;6.918;2022-12-29T07:56:26;4.22;;;1.50;;
17214;SDS011;8723;51.502;6.918;2022-12-29T07:58:53;3.55;;;1.15;;
17214;SDS011;8723;51.502;6.918;2022-12-29T08:01:20;3.33;;;1.30;;
17214;SDS011;8723;51.502;6.918;2022-12-29T08:03:48;2.83;;;1.20;;
17214;SDS011;8723;51.502;6.918;2022-12-29T08:06:15;4.93;;;1.40;;
17214;SDS011;8723;51.502;6.918;2022-12-29T08:08:43;3.88;;;1.30;;
17214;SDS011;8723;51.502;6.918;2022-12-29T08:11:12;4.68;;;1.48;;
17214;SDS011;8723;51.502;6.918;2022-12-29T08:13:39;3.60;;;1.35;;
17214;SDS011;8723;51.502;6.918;2022-12-29T08:16:06;3.35;;;1.40;;
17214;SDS011;8723;51.502;6.918;2022-12-29T08:18:33;4.17;;;1.50;;
17214;SDS011;8723;51.502;6.918;2022-12-29T08:21:01;5.50;;;1.52;;
17214;SDS011;8723;51.502;6.918;2022-12-29T08:23:28;4.53;;;1.50;;
17214;SDS011;8723;51.502;6.918;2022-12-29T08:25:58;4.53;;;1.50;;
17214;SDS011;8723;51.502;6.918;2022-12-29T08:28:27;3.70;;;1.60;;
17214;SDS011;8723;51.502;6.918;2022-12-29T08:30:56;4.22;;;1.52;;
17214;SDS011;8723;51.502;6.918;2022-12-29T08:33:24;3.55;;;1.50;;
17214;SDS011;8723;51.502;6.918;2022-12-29T08:35:51;4.20;;;1.50;;
17214;SDS011;8723;51.502;6.918;2022-12-29T08:38:18;5.07;;;1.60;;
17214;SDS011;8723;51.502;6.918;2022-12-29T08:40:45;4.00;;;1.60;;
17214;SDS011;8723;51.502;6.918;2022-12-29T08:43:12;5.80;;;1.90;;
17214;SDS011;8723;51.502;6.918;2022-12-29T08:45:41;4.13;;;1.50;;
17214;SDS011;8723;51.502;6.918;2022-12-29T08:48:08;5.60;;;2.20;;
17214;SDS011;8723;51.502;6.918;2022-12-29T08:50:35;5.10;;;1.67;;
17214;SDS011;8723;51.502;6.918;2022-12-29T08:53:02;5.45;;;1.77;;
17214;SDS011;8723;51.502;6.918;2022-12-29T08:55:29;4.05;;;1.55;;
17214;SDS011;8723;51.502;6.918;2022-12-29T08:57:56;5.20;;;1.50;;
17214;SDS011;8723;51.502;6.918;2022-12-29T09:00:23;6.10;;;1.77;;
17214;SDS011;8723;51.502;6.918;2022-12-29T09:02:52;4.43;;;1.70;;
17214;SDS011;8723;51.502;6.918;2022-12-29T09:05:19;5.18;;;2.15;;
17214;SDS011;8723;51.502;6.918;2022-12-29T09:07:46;6.13;;;1.80;;
17214;SDS011;8723;51.502;6.918;2022-12-29T09:10:14;4.57;;;1.85;;
17214;SDS011;8723;51.502;6.918;2022-12-29T09:12:41;6.40;;;1.77;;
17214;SDS011;8723;51.502;6.918;2022-12-29T09:15:08;5.23;;;1.80;;
17214;SDS011;8723;51.502;6.918;2022-12-29T09:17:35;5.88;;;2.00;;
17214;SDS011;8723;51.502;6.918;2022-12-29T09:20:10;6.97;;;1.95;;
17214;SDS011;8723;51.502;6.918;2022-12-29T09:22:38;6.35;;;1.83;;
17214;SDS011;8723;51.502;6.918;2022-12-29T09:25:05;7.03;;;2.00;;
17214;SDS011;8723;51.502;6.918;2022-12-29T09:27:34;5.82;;;1.73;;
17214;SDS011;8723;51.502;6.918;2022-12-29T09:30:01;5.70;;;1.60;;
17214;SDS011;8723;51.502;6.918;2022-12-29T09:32:28;5.20;;;1.88;;
17214;SDS011;8723;51.502;6.918;2022-12-29T09:34:55;4.97;;;1.80;;
17214;SDS011;8723;51.502;6.918;2022-12-29T09:37:24;6.90;;;2.10;;
17214;SDS011;8723;51.502;6.918;2022-12-29T09:39:51;6.88;;;1.80;;
17214;SDS011;8723;51.502;6.918;2022-12-29T09:42:19;5.78;;;1.80;;
17214;SDS011;8723;51.502;6.918;2022-12-29T09:44:51;5.47;;;2.13;;
17214;SDS011;8723;51.502;6.918;2022-12-29T09:47:21;6.18;;;2.22;;
17214;SDS011;8723;51.502;6.918;2022-12-29T09:49:52;4.85;;;2.08;;
17214;SDS011;8723;51.502;6.918;2022-12-29T09:52:21;5.13;;;1.90;;
17214;SDS011;8723;51.502;6.918;2022-12-29T09:54:52;6.22;;;2.25;;
17214;SDS011;8723;51.502;6.918;2022-12-29T09:57:21;5.20;;;1.90;;
17214;SDS011;8723;51.502;6.918;2022-12-29T09:59:50;6.50;;;2.70;;
17214;SDS011;8723;51.502;6.918;2022-12-29T10:02:23;4.78;;;1.90;;
17214;SDS011;8723;51.502;6.918;2022-12-29T10:04:54;5.43;;;1.95;;
17214;SDS011;8723;51.502;6.918;2022-12-29T10:07:24;6.20;;;1.90;;
17214;SDS011;8723;51.502;6.918;2022-12-29T10:09:56;5.47;;;1.90;;
17214;SDS011;8723;51.502;6.918;2022-12-29T10:12:28;5.55;;;1.80;;
17214;SDS011;8723;51.502;6.918;2022-12-29T10:14:58;6.93;;;2.03;;
17214;SDS011;8723;51.502;6.918;2022-12-29T10:17:30;5.70;;;2.20;;
17214;SDS011;8723;51.502;6.918;2022-12-29T10:20:02;5.90;;;2.17;;
17214;SDS011;8723;51.502;6.918;2022-12-29T10:22:36;5.78;;;2.00;;
17214;SDS011;8723;51.502;6.918;2022-12-29T10:25:11;5.70;;;2.10;;
17214;SDS011;8723;51.502;6.918;2022-12-29T10:27:39;6.85;;;1.80;;
17214;SDS011;8723;51.502;6.918;2022-12-29T10:30:11;6.68;;;2.00;;
17214;SDS011;8723;51.502;6.918;2022-12-29T10:32:39;4.82;;;1.90;;
17214;SDS011;8723;51.502;6.918;2022-12-29T10:35:09;6.57;;;2.30;;
17214;SDS011;8723;51.502;6.918;2022-12-29T10:37:39;5.82;;;2.10;;
17214;SDS011;8723;51.502;6.918;2022-12-29T10:40:17;8.43;;;2.03;;
17214;SDS011;8723;51.502;6.918;2022-12-29T10:42:46;7.15;;;2.30;;
17214;SDS011;8723;51.502;6.918;2022-12-29T10:45:16;5.45;;;1.98;;
17214;SDS011;8723;51.502;6.918;2022-12-29T10:47:52;4.97;;;2.00;;
17214;SDS011;8723;51.502;6.918;2022-12-29T10:50:19;5.32;;;2.03;;
17214;SDS011;8723;51.502;6.918;2022-12-29T10:52:47;6.95;;;1.85;;
17214;SDS011;8723;51.502;6.918;2022-12-29T10:55:17;4.70;;;2.00;;
17214;SDS011;8723;51.502;6.918;2022-12-29T10:57:46;5.25;;;2.13;;
17214;SDS011;8723;51.502;6.918;2022-12-29T11:00:15;5.90;;;1.80;;
17214;SDS011;8723;51.502;6.918;2022-12-29T11:02:52;6.82;;;2.00;;
17214;SDS011;8723;51.502;6.918;2022-12-29T11:05:23;7.18;;;2.00;;
17214;SDS011;8723;51.502;6.918;2022-12-29T11:07:54;6.13;;;2.20;;
17214;SDS011;8723;51.502;6.918;2022-12-29T11:10:30;6.32;;;2.13;;
17214;SDS011;8723;51.502;6.918;2022-12-29T11:13:02;5.35;;;1.95;;
17214;SDS011;8723;51.502;6.918;2022-12-29T11:15:37;5.40;;;2.17;;
17214;SDS011;8723;51.502;6.918;2022-12-29T11:18:07;5.00;;;1.95;;
17214;SDS011;8723;51.502;6.918;2022-12-29T11:20:43;7.93;;;2.08;;
17214;SDS011;8723;51.502;6.918;2022-12-29T11:23:21;6.90;;;2.20;;
17214;SDS011;8723;51.502;6.918;2022-12-29T11:25:53;7.60;;;2.20;;
17214;SDS011;8723;51.502;6.918;2022-12-29T11:28:31;6.90;;;2.00;;
17214;SDS011;8723;51.502;6.918;2022-12-29T11:31:00;6.90;;;2.17;;
17214;SDS011;8723;51.502;6.918;2022-12-29T11:33:27;7.05;;;2.03;;
17214;SDS011;8723;51.502;6.918;2022-12-29T11:35:56;5.63;;;1.70;;
17214;SDS011;8723;51.502;6.918;2022-12-29T11:38:25;6.22;;;1.92;;
17214;SDS011;8723;51.502;6.918;2022-12-29T11:40:56;5.28;;;2.03;;
17214;SDS011;8723;51.502;6.918;2022-12-29T11:43:26;6.50;;;2.03;;
17214;SDS011;8723;51.502;6.918;2022-12-29T11:45:55;5.70;;;2.10;;
17214;SDS011;8723;51.502;6.918;2022-12-29T11:48:22;6.20;;;1.80;;
17214;SDS011;8723;51.502;6.918;2022-12-29T11:50:52;5.78;;;2.28;;
17214;SDS011;8723;51.502;6.918;2022-12-29T11:53:20;5.38;;;2.00;;
17214;SDS011;8723;51.502;6.918;2022-12-29T11:55:52;7.23;;;2.50;;
17214;SDS011;8723;51.502;6.918;2022-12-29T11:58:21;5.55;;;1.92;;
17214;SDS011;8723;51.502;6.918;2022-12-29T12:00:54;5.00;;;1.75;;
17214;SDS011;8723;51.502;6.918;2022-12-29T12:03:24;5.47;;;1.83;;
17214;SDS011;8723;51.502;6.918;2022-12-29T12:05:52;5.45;;;1.85;;
17214;SDS011;8723;51.502;6.918;2022-12-29T12:08:22;6.55;;;2.30;;
17214;SDS011;8723;51.502;6.918;2022-12-29T12:10:57;5.80;;;1.83;;
17214;SDS011;8723;51.502;6.918;2022-12-29T12:13:28;7.32;;;2.45;;
17214;SDS011;8723;51.502;6.918;2022-12-29T12:15:57;7.80;;;2.05;;
17214;SDS011;8723;51.502;6.918;2022-12-29T12:18:30;5.68;;;1.70;;
17214;SDS011;8723;51.502;6.918;2022-12-29T12:21:00;4.68;;;1.80;;
17214;SDS011;8723;51.502;6.918;2022-12-29T12:23:33;5.22;;;2.08;;
17214;SDS011;8723;51.502;6.918;2022-12-29T12:26:04;5.22;;;1.90;;
17214;SDS011;8723;51.502;6.918;2022-12-29T12:28:40;6.43;;;1.92;;
17214;SDS011;8723;51.502;6.918;2022-12-29T12:31:13;6.72;;;2.10;;
17214;SDS011;8723;51.502;6.918;2022-12-29T12:33:44;5.20;;;1.85;;
17214;SDS011;8723;51.502;6.918;2022-12-29T12:36:19;7.55;;;2.20;;
17214;SDS011;8723;51.502;6.918;2022-12-29T12:38:51;6.50;;;2.10;;
17214;SDS011;8723;51.502;6.918;2022-12-29T12:41:23;5.80;;;1.90;;
17214;SDS011;8723;51.502;6.918;2022-12-29T12:43:56;5.25;;;1.80;;
17214;SDS011;8723;51.502;6.918;2022-12-29T12:46:31;5.70;;;1.95;;
17214;SDS011;8723;51.502;6.918;2022-12-29T12:49:08;6.28;;;2.03;;
17214;SDS011;8723;51.502;6.918;2022-12-29T12:51:41;5.47;;;2.15;;
17214;SDS011;8723;51.502;6.918;2022-12-29T12:54:16;4.53;;;1.75;;
17214;SDS011;8723;51.502;6.918;2022-12-29T12:56:55;4.82;;;2.33;;
17214;SDS011;8723;51.502;6.918;2022-12-29T12:59:32;5.55;;;2.13;;
17214;SDS011;8723;51.502;6.918;2022-12-29T13:02:03;7.75;;;2.55;;
17214;SDS011;8723;51.502;6.918;2022-12-29T13:04:39;9.13;;;4.03;;
17214;SDS011;8723;51.502;6.918;2022-12-29T13:07:11;9.25;;;4.70;;
17214;SDS011;8723;51.502;6.918;2022-12-29T13:09:46;12.48;;;5.00;;
17214;SDS011;8723;51.502;6.918;2022-12-29T13:12:18;8.10;;;3.20;;
17214;SDS011;8723;51.502;6.918;2022-12-29T13:14:54;9.43;;;3.45;;
17214;SDS011;8723;51.502;6.918;2022-12-29T13:17:26;6.47;;;3.00;;
17214;SDS011;8723;51.502;6.918;2022-12-29T13:19:59;8.67;;;3.13;;
17214;SDS011;8723;51.502;6.918;2022-12-29T13:22:29;7.55;;;3.53;;
17214;SDS011;8723;51.502;6.918;2022-12-29T13:25:04;7.93;;;3.47;;
17214;SDS011;8723;51.502;6.918;2022-12-29T13:27:35;8.68;;;3.20;;
17214;SDS011;8723;51.502;6.918;2022-12-29T13:30:08;9.00;;;3.47;;
17214;SDS011;8723;51.502;6.918;2022-12-29T13:32:40;7.60;;;3.10;;
17214;SDS011;8723;51.502;6.918;2022-12-29T13:35:12;7.60;;;2.88;;
17214;SDS011;8723;51.502;6.918;2022-12-29T13:37:48;8.00;;;2.90;;
17214;SDS011;8723;51.502;6.918;2022-12-29T13:40:18;8.63;;;3.80;;
17214;SDS011;8723;51.502;6.918;2022-12-29T13:42:46;8.45;;;3.00;;
17214;SDS011;8723;51.502;6.918;2022-12-29T13:45:16;7.57;;;3.13;;
17214;SDS011;8723;51.502;6.918;2022-12-29T13:47:44;7.75;;;3.10;;
17214;SDS011;8723;51.502;6.918;2022-12-29T13:50:14;7.05;;;3.05;;
17214;SDS011;8723;51.502;6.918;2022-12-29T13:52:43;7.78;;;3.22;;
17214;SDS011;8723;51.502;6.918;2022-12-29T13:55:18;8.93;;;3.50;;
17214;SDS011;8723;51.502;6.918;2022-12-29T13:57:48;9.70;;;2.95;;
17214;SDS011;8723;51.502;6.918;2022-12-29T14:00:19;6.63;;;2.47;;
17214;SDS011;8723;51.502;6.918;2022-12-29T14:02:53;6.40;;;2.70;;
17214;SDS011;8723;51.502;6.918;2022-12-29T14:05:28;8.20;;;3.58;;
17214;SDS011;8723;51.502;6.918;2022-12-29T14:07:57;7.68;;;3.78;;
17214;SDS011;8723;51.502;6.918;2022-12-29T14:10:26;6.28;;;3.22;;
17214;SDS011;8723;51.502;6.918;2022-12-29T14:12:59;7.25;;;3.05;;
17214;SDS011;8723;51.502;6.918;2022-12-29T14:15:28;7.20;;;2.67;;
17214;SDS011;8723;51.502;6.918;2022-12-29T14:18:02;6.00;;;2.90;;
17214;SDS011;8723;51.502;6.918;2022-12-29T14:20:30;6.60;;;2.47;;
17214;SDS011;8723;51.502;6.918;2022-12-29T14:22:58;6.85;;;2.50;;
17214;SDS011;8723;51.502;6.918;2022-12-29T14:28:15;9.25;;;4.00;;
17214;SDS011;8723;51.502;6.918;2022-12-29T14:33:20;19.25;;;14.82;;
17214;SDS011;8723;51.502;6.918;2022-12-29T14:35:48;12.40;;;9.90;;
17214;SDS011;8723;51.502;6.918;2022-12-29T14:38:27;13.60;;;10.47;;
17214;SDS011;8723;51.502;6.918;2022-12-29T14:41:15;12.93;;;11.52;;
17214;SDS011;8723;51.502;6.918;2022-12-29T14:43:50;6.68;;;4.63;;
17214;SDS011;8723;51.502;6.918;2022-12-29T14:46:18;9.13;;;3.30;;
17214;SDS011;8723;51.502;6.918;2022-12-29T14:48:46;7.78;;;2.83;;
17214;SDS011;8723;51.502;6.918;2022-12-29T14:51:21;6.63;;;3.20;;
17214;SDS011;8723;51.502;6.918;2022-12-29T14:53:52;6.57;;;2.78;;
17214;SDS011;8723;51.502;6.918;2022-12-29T14:56:20;7.65;;;2.42;;
17214;SDS011;8723;51.502;6.918;2022-12-29T14:58:51;6.30;;;2.30;;
17214;SDS011;8723;51.502;6.918;2022-12-29T15:01:22;6.63;;;2.70;;
17214;SDS011;8723;51.502;6.918;2022-12-29T15:03:53;6.97;;;2.80;;
17214;SDS011;8723;51.502;6.918;2022-12-29T15:06:21;6.82;;;2.50;;
17214;SDS011;8723;51.502;6.918;2022-12-29T15:08:51;5.20;;;2.67;;
17214;SDS011;8723;51.502;6.918;2022-12-29T15:11:19;8.23;;;2.97;;
17214;SDS011;8723;51.502;6.918;2022-12-29T15:13:46;7.13;;;2.78;;
17214;SDS011;8723;51.502;6.918;2022-12-29T15:16:21;6.88;;;2.83;;
17214;SDS011;8723;51.502;6.918;2022-12-29T15:18:48;6.32;;;2.75;;
17214;SDS011;8723;51.502;6.918;2022-12-29T15:21:17;4.68;;;2.20;;
17214;SDS011;8723;51.502;6.918;2022-12-29T15:23:48;6.77;;;2.50;;
17214;SDS011;8723;51.502;6.918;2022-12-29T15:26:15;6.65;;;2.30;;